Date,TemperatureHighF,TemperatureAvgF,TemperatureLowF,DewpointHighF,DewpointAvgF,DewpointLowF,HumidityHigh,HumidityAvg,HumidityLow,PressureMaxIn,PressureMinIn,WindSpeedMaxMPH,WindSpeedAvgMPH,GustSpeedMaxMPH,PrecipitationSumIn
2013-1-1,47,46,42,46,39,30,97,80,52,30.08,29.90,6,1,15,0.24
2013-1-2,46,43,38,46,41,37,97,93,82,30.17,29.91,6,1,10,0.02
2013-1-3,43,38,28,38,36,27,96,91,78,30.25,30.13,3,0,6,0.02
2013-1-4,50,37,26,29,26,21,95,67,40,30.31,30.17,7,1,11,0.01
2013-1-5,49,38,25,32,26,21,84,64,44,30.38,30.24,3,0,7,0.01
2013-1-6,50,42,36,38,35,31,91,76,62,30.24,30.04,5,1,7,0.00
2013-1-7,51,39,29,35,31,27,91,75,51,30.42,30.16,6,0,9,0.00
2013-1-8,53,38,26,40,33,25,95,83,58,30.46,30.36,3,0,4,0.00
2013-1-9,66,49,32,54,43,31,96,82,62,30.43,30.33,5,0,13,0.00
2013-1-10,62,52,42,48,44,38,95,77,56,30.51,30.39,5,0,7,0.00
2013-1-11,48,45,41,48,42,35,97,89,65,30.42,30.13,3,0,5,0.20
2013-1-12,70,57,49,64,55,48,98,94,80,30.15,30.07,5,0,6,0.21
2013-1-13,74,63,53,63,58,52,98,86,65,30.11,30.02,7,1,13,0.01
2013-1-14,66,63,54,63,60,53,98,90,81,30.13,30.05,7,1,15,0.10
2013-1-15,53,44,42,52,43,42,97,96,95,30.22,30.05,7,1,13,0.03
2013-1-16,49,44,41,48,44,40,98,97,97,30.07,29.95,3,1,7,0.12
2013-1-17,49,45,32,49,44,31,98,97,94,30.13,29.89,8,2,22,0.97
2013-1-18,45,35,27,33,29,25,97,80,47,30.52,30.12,5,1,11,0.24
2013-1-19,53,36,23,32,28,21,95,74,41,30.49,30.14,6,1,10,0.24
2013-1-20,63,48,38,39,34,29,78,59,39,30.13,29.96,14,2,21,0.00
2013-1-21,59,44,27,36,29,19,95,60,35,30.07,29.84,12,1,14,0.00
2013-1-22,42,33,24,19,9,3,47,38,25,30.27,29.93,13,2,16,0.00
2013-1-23,41,28,16,17,12,5,81,53,35,30.37,30.05,10,1,15,0.00
2013-1-24,35,30,22,23,13,4,70,51,33,30.51,29.95,13,2,23,0.00
2013-1-25,27,23,18,25,15,6,92,73,46,30.52,30.11,5,0,8,0.00
2013-1-26,35,29,25,32,27,24,94,93,89,30.40,30.08,4,0,6,0.16
2013-1-27,40,30,21,29,25,19,95,83,60,30.60,30.39,4,0,8,0.05
2013-1-28,51,41,29,48,36,26,94,83,65,30.50,30.21,7,1,13,0.02
2013-1-29,74,59,47,59,53,45,95,80,58,30.22,30.03,6,2,14,0.02
2013-1-30,72,68,62,65,63,58,92,84,74,30.03,29.36,20,6,31,0.16
2013-1-31,62,46,35,58,31,22,91,58,36,29.98,29.41,16,5,36,0.35
2013-2-1,40,34,25,29,15,7,68,47,31,30.38,29.85,16,3,30,0.00
2013-2-2,44,32,17,32,15,8,78,50,34,30.39,30.01,9,1,19,0.00
2013-2-3,48,41,33,35,30,24,92,66,48,30.01,29.83,10,2,16,0.00
2013-2-4,48,38,24,28,24,20,85,59,40,30.13,29.98,6,1,10,0.00
2013-2-5,59,47,39,37,33,29,78,61,42,29.98,29.86,11,2,12,0.00
2013-2-6,60,44,29,36,31,27,94,63,33,30.27,29.95,8,1,15,0.00
2013-2-7,47,40,33,41,36,30,96,84,70,30.32,30.00,5,1,10,0.58
2013-2-8,54,45,38,46,39,29,96,81,54,30.02,29.79,10,3,25,1.08
2013-2-9,52,40,27,29,24,21,82,57,31,30.34,30.02,6,1,14,0.00
2013-2-10,52,37,22,40,25,20,92,66,34,30.48,30.20,6,1,12,0.04
2013-2-11,62,56,44,60,53,41,97,92,85,30.19,29.89,9,2,16,0.04
2013-2-12,60,53,46,53,36,30,89,56,35,30.06,29.89,10,2,16,0.04
2013-2-13,48,45,42,45,42,35,96,91,68,29.93,29.60,5,1,15,0.25
2013-2-14,51,41,30,36,33,29,95,74,50,30.05,29.81,7,1,10,0.25
2013-2-15,62,45,27,41,34,26,96,69,38,30.07,29.91,4,1,15,0.00
2013-2-16,45,36,30,34,32,27,95,87,66,29.96,29.82,7,1,12,0.43
2013-2-17,37,29,23,28,15,9,90,56,35,30.27,29.90,21,3,25,0.43
2013-2-18,52,34,15,27,19,13,92,58,32,30.41,30.25,8,1,14,0.00
2013-2-19,50,42,34,48,38,27,95,83,60,30.24,29.84,9,2,20,0.16
2013-2-20,52,41,30,38,21,17,90,48,26,30.13,29.94,11,2,17,0.16
2013-2-21,52,39,24,26,21,18,80,51,30,30.25,30.10,5,1,11,0.00
2013-2-22,41,35,31,34,31,23,95,85,49,30.34,30.13,3,0,7,0.19
2013-2-23,43,39,35,41,38,34,97,96,95,30.11,29.80,3,0,12,0.46
2013-2-24,62,49,37,46,38,28,97,69,35,30.02,29.78,9,1,14,0.01
2013-2-25,41,36,31,29,25,23,83,66,52,30.21,30.02,7,1,10,0.01
2013-2-26,55,43,31,55,40,25,97,89,70,30.14,29.54,10,2,17,0.69
2013-2-27,60,49,42,45,40,37,96,74,47,29.75,29.59,11,2,16,0.69
2013-2-28,48,42,33,39,32,27,90,68,48,29.84,29.67,7,1,17,0.00
2013-3-1,48,40,29,32,29,26,88,66,48,29.89,29.82,9,1,14,0.00
2013-3-2,46,38,30,29,26,19,87,62,48,29.90,29.79,10,1,15,0.00
2013-3-3,46,35,28,24,20,17,69,56,40,29.97,29.82,12,2,16,0.00
2013-3-4,50,36,25,24,18,13,73,50,29,30.10,29.96,8,2,16,0.00
2013-3-5,49,41,32,43,35,24,96,82,50,30.07,29.55,5,1,12,0.36
2013-3-6,46,41,35,41,33,28,96,75,58,30.01,29.49,16,4,30,0.01
2013-3-7,50,41,34,33,29,26,79,64,50,30.22,30.01,12,2,16,0.01
2013-3-8,55,43,32,30,27,25,75,55,37,30.27,30.13,16,2,22,0.00
2013-3-9,40,38,37,28,27,27,66,64,61,30.28,30.26,0,0,5,0.00